Time;durP1;ratioP1;P1;durP2;ratioP2;P2;SDS_P1;SDS_P2;PMS_P1;PMS_P2;Temp;Humidity;BMP_temperature;BMP_pressure;BME280_temperature;BME280_humidity;BME280_pressure;Samples;Min_cycle;Max_cycle;Signal;HPM_P1;HPM_P2
2023/04/29 00:00:39;;;;;;;;;;;;;;;13.55;97.13;99512.53;1082398;54;19946;-79
2023/04/29 00:01:40;;;;;;;;;;;;;;;13.59;96.93;99501.47;1082947;39;20754;-78
2023/04/29 00:02:44;;;;;;;;;;;;;;;13.55;96.74;99501.81;1082246;54;19989;-78
2023/04/29 00:03:45;;;;;;;;;;;;;;;13.54;96.69;99505.50;1082169;54;19997;-78
2023/04/29 00:04:49;;;;;;;;;;;;;;;13.51;96.81;99500.47;1083894;39;20044;-78
2023/04/29 00:05:53;;;;;;;;;;;;;;;13.50;97.20;99501.50;1082578;54;19947;-78
2023/04/29 00:06:57;;;;;;;;;;;;;;;13.48;97.49;99500.84;1082825;39;20064;-77
2023/04/29 00:07:58;;;;;;;;;;;;;;;13.51;97.39;99503.16;1083192;39;20907;-77
2023/04/29 00:09:03;;;;;;;;;;;;;;;13.55;97.30;99503.66;1082612;39;20444;-78
2023/04/29 00:10:05;;;;;;;;;;;;;;;13.55;97.21;99501.81;1082307;54;19947;-77
2023/04/29 00:11:09;;;;;;;;;;;;;;;13.56;96.92;99503.47;1082279;54;19953;-78
2023/04/29 00:12:10;;;;;;;;;;;;;;;13.57;96.31;99505.16;1082563;47;19946;-78
2023/04/29 00:13:14;;;;;;;;;;;;;;;13.60;96.37;99498.59;1082455;54;19956;-78
2023/04/29 00:14:15;;;;;;;;;;;;;;;13.59;96.21;99501.47;1082544;54;19950;-78
2023/04/29 00:15:19;;;;;;;;;;;;;;;13.60;96.15;99500.44;1082564;54;19951;-79
2023/04/29 00:16:20;;;;;;;;;;;;;;;13.58;95.92;99497.91;1082429;54;19962;-78
2023/04/29 00:17:24;;;;;;;;;;;;;;;13.60;95.78;99503.13;1082936;39;20447;-78
2023/04/29 00:18:25;;;;;;;;;;;;;;;13.56;95.84;99505.31;1082748;54;19951;-79
2023/04/29 00:19:29;;;;;;;;;;;;;;;13.59;96.05;99501.47;1082612;54;20741;-77
2023/04/29 00:20:30;;;;;;;;;;;;;;;13.61;96.07;99502.94;1082840;54;19969;-79
2023/04/29 00:21:37;;;;;;;;;;;;;;;13.63;95.90;99497.38;1082797;54;19954;-78
2023/04/29 00:22:38;;;;;;;;;;;;;;;13.63;95.25;99500.94;1082830;54;19951;-79
2023/04/29 00:23:42;;;;;;;;;;;;;;;13.66;95.33;99502.41;1082397;54;19953;-78
2023/04/29 00:24:43;;;;;;;;;;;;;;;13.65;95.40;99498.88;1082712;54;20011;-79
2023/04/29 00:25:47;;;;;;;;;;;;;;;13.66;95.19;99513.16;1082934;54;20429;-78
2023/04/29 00:26:48;;;;;;;;;;;;;;;13.67;94.93;99499.53;1082891;54;19946;-78
2023/04/29 00:27:52;;;;;;;;;;;;;;;13.68;95.05;99497.72;1082879;54;20002;-78
2023/04/29 00:28:53;;;;;;;;;;;;;;;13.68;94.59;99500.38;1082713;54;20423;-78
2023/04/29 00:29:57;;;;;;;;;;;;;;;13.67;94.57;99494.16;1082437;54;19951;-78
2023/04/29 00:30:58;;;;;;;;;;;;;;;13.66;94.16;99499.72;1082625;54;20457;-77
2023/04/29 00:32:02;;;;;;;;;;;;;;;13.64;94.36;99502.59;1082594;54;19970;-78
2023/04/29 00:33:03;;;;;;;;;;;;;;;13.64;94.15;99497.22;1083252;54;20003;-76
2023/04/29 00:34:07;;;;;;;;;;;;;;;13.65;94.66;99501.56;1083149;47;20006;-77
2023/04/29 00:35:10;;;;;;;;;;;;;;;13.65;94.49;99498.88;1082746;54;19950;-76
2023/04/29 00:36:13;;;;;;;;;;;;;;;13.63;94.40;99495.56;1082429;54;19947;-77
2023/04/29 00:37:17;;;;;;;;;;;;;;;13.64;94.57;99499.91;1082659;54;19951;-76
2023/04/29 00:38:21;;;;;;;;;;;;;;;13.63;94.41;99497.38;1082562;54;19946;-76
2023/04/29 00:39:22;;;;;;;;;;;;;;;13.63;94.24;99498.25;1082424;54;19946;-76
2023/04/29 00:40:26;;;;;;;;;;;;;;;13.62;94.15;99501.09;1082397;54;19973;-76
2023/04/29 00:41:28;;;;;;;;;;;;;;;13.59;94.05;99496.91;1082607;54;19947;-76
2023/04/29 00:42:33;;;;;;;;;;;;;;;13.56;94.00;99494.56;1082471;54;19984;-77
2023/04/29 00:43:34;;;;;;;;;;;;;;;13.54;94.09;99510.88;1082506;54;19947;-76
2023/04/29 00:44:38;;;;;;;;;;;;;;;13.51;94.04;99494.28;1082499;54;19972;-78
2023/04/29 00:45:39;;;;;;;;;;;;;;;13.49;94.25;99496.31;1082419;54;19954;-76
2023/04/29 00:46:43;;;;;;;;;;;;;;;13.47;94.38;99499.19;1082581;54;20066;-76
2023/04/29 00:47:44;;;;;;;;;;;;;;;13.46;94.47;99502.88;1082346;54;19951;-77
2023/04/29 00:48:48;;;;;;;;;;;;;;;13.46;94.74;99505.56;1082351;54;19957;-77
2023/04/29 00:49:49;;;;;;;;;;;;;;;13.45;94.74;99503.88;1082331;54;19951;-77
2023/04/29 00:50:53;;;;;;;;;;;;;;;13.41;94.80;99497.22;1082307;54;20433;-78
2023/04/29 00:51:55;;;;;;;;;;;;;;;13.37;95.11;99501.22;1082404;54;19954;-77
2023/04/29 00:53:02;;;;;;;;;;;;;;;13.35;95.79;99509.44;1082249;54;19951;-76
2023/04/29 00:54:04;;;;;;;;;;;;;;;13.34;95.92;99506.91;1082516;54;19950;-76
2023/04/29 00:55:11;;;;;;;;;;;;;;;13.30;96.74;99511.81;1082670;54;20958;-76
2023/04/29 00:56:13;;;;;;;;;;;;;;;13.24;97.73;99513.34;1083023;54;19953;-76
2023/04/29 00:57:17;;;;;;;;;;;;;;;13.23;98.69;99517.03;1083780;54;19950;-77
2023/04/29 00:58:18;;;;;;;;;;;;;;;13.23;98.52;99517.03;1084749;39;20428;-77
2023/04/29 00:59:22;;;;;;;;;;;;;;;13.24;98.22;99517.91;1084542;54;19946;-77
2023/04/29 01:00:25;;;;;;;;;;;;;;;13.24;97.35;99516.03;1083622;54;20022;-78
2023/04/29 01:01:28;;;;;;;;;;;;;;;13.24;97.51;99515.22;1084352;54;19959;-77
2023/04/29 01:02:30;;;;;;;;;;;;;;;13.25;97.05;99520.38;1084475;54;19954;-77
2023/04/29 01:03:33;;;;;;;;;;;;;;;13.24;97.30;99516.03;1084570;54;20506;-77
2023/04/29 01:04:35;;;;;;;;;;;;;;;13.25;96.80;99511.50;1084790;54;20796;-77
2023/04/29 01:05:38;;;;;;;;;;;;;;;13.27;97.05;99521.06;1084239;54;20018;-77
2023/04/29 01:06:48;;;;;;;;;;;;;;;13.29;96.48;99517.38;1084621;54;19946;-77
2023/04/29 01:07:58;;;;;;;;;;;;;;;13.29;96.17;99518.19;1084640;54;19947;-77
2023/04/29 01:09:10;;;;;;;;;;;;;;;13.29;96.39;99518.19;1084392;54;19946;-77
2023/04/29 01:10:16;;;;;;;;;;;;;;;13.31;95.99;99520.72;1084580;54;19954;-77
2023/04/29 01:11:22;;;;;;;;;;;;;;;13.33;96.25;99518.66;1084427;54;19973;-77
2023/04/29 01:12:33;;;;;;;;;;;;;;;13.33;95.68;99519.53;1084622;54;19950;-77
2023/04/29 01:13:36;;;;;;;;;;;;;;;13.33;95.86;99518.66;1084563;54;19978;-77
2023/04/29 01:14:41;;;;;;;;;;;;;;;13.26;95.09;99514.00;1084548;54;19951;-78
2023/04/29 01:15:46;;;;;;;;;;;;;;;13.25;96.08;99519.56;1084979;46;20014;-77
2023/04/29 01:16:53;;;;;;;;;;;;;;;13.23;96.42;99514.34;1084301;54;19951;-77
2023/04/29 01:17:59;;;;;;;;;;;;;;;13.25;96.31;99516.88;1084734;54;19954;-78
2023/04/29 01:19:06;;;;;;;;;;;;;;;13.22;96.72;99517.22;1085392;54;19957;-77
2023/04/29 01:20:09;;;;;;;;;;;;;;;13.21;96.79;99526.28;1085648;54;19950;-76
2023/04/29 01:21:14;;;;;;;;;;;;;;;13.13;97.33;99521.78;1085391;54;19954;-78
2023/04/29 01:22:17;;;;;;;;;;;;;;;13.15;97.37;99533.19;1087349;54;19947;-76
2023/04/29 01:23:22;;;;;;;;;;;;;;;13.16;97.33;99534.84;1087610;54;20002;-78
2023/04/29 01:24:25;;;;;;;;;;;;;;;13.14;97.93;99530.69;1087125;54;20017;-77
2023/04/29 01:25:29;;;;;;;;;;;;;;;13.14;98.26;99531.50;1086090;54;19946;-77
2023/04/29 01:26:32;;;;;;;;;;;;;;;13.14;97.95;99531.50;1086604;46;19947;-77
2023/04/29 01:27:38;;;;;;;;;;;;;;;13.15;97.38;99530.50;1086288;46;20223;-77
2023/04/29 01:28:44;;;;;;;;;;;;;;;13.18;97.21;99538.22;1086115;54;19965;-77
2023/04/29 01:29:52;;;;;;;;;;;;;;;13.19;96.69;99534.53;1085902;54;19962;-77
2023/04/29 01:30:59;;;;;;;;;;;;;;;13.19;96.54;99526.47;1085650;39;20858;-77
2023/04/29 01:32:07;;;;;;;;;;;;;;;13.21;96.65;99528.97;1084661;54;19969;-76
2023/04/29 01:33:13;;;;;;;;;;;;;;;13.21;96.05;99532.50;1084354;54;19962;-76
2023/04/29 01:34:21;;;;;;;;;;;;;;;13.22;96.23;99527.97;1083699;54;19951;-77
2023/04/29 01:35:29;;;;;;;;;;;;;;;13.19;95.79;99536.34;1084131;54;19947;-77
2023/04/29 01:36:35;;;;;;;;;;;;;;;13.17;95.58;99527.66;1084454;54;20003;-76
2023/04/29 01:37:40;;;;;;;;;;;;;;;13.16;96.06;99523.31;1083643;54;19957;-76
2023/04/29 01:38:49;;;;;;;;;;;;;;;13.11;96.34;99537.25;1083610;54;19953;-77
2023/04/29 01:39:56;;;;;;;;;;;;;;;13.11;96.37;99539.94;1083728;54;19950;-77
2023/04/29 01:41:06;;;;;;;;;;;;;;;13.12;96.54;99533.56;1086545;54;19973;-78
2023/04/29 01:42:13;;;;;;;;;;;;;;;13.13;96.14;99529.81;1086990;54;19954;-77
2023/04/29 01:43:17;;;;;;;;;;;;;;;13.13;96.07;99529.00;1084877;54;20461;-77
2023/04/29 01:44:21;;;;;;;;;;;;;;;13.11;96.04;99534.56;1083301;54;19946;-77
2023/04/29 01:45:24;;;;;;;;;;;;;;;13.12;96.41;99528.19;1083103;54;19947;-77
2023/04/29 01:46:26;;;;;;;;;;;;;;;13.04;95.92;99526.34;1083345;54;19970;-77
2023/04/29 01:47:31;;;;;;;;;;;;;;;13.00;96.37;99530.38;1083054;54;20467;-76
2023/04/29 01:48:32;;;;;;;;;;;;;;;12.94;96.59;99531.91;1083580;54;19947;-78
2023/04/29 01:49:38;;;;;;;;;;;;;;;12.97;97.04;99535.25;1083539;54;19958;-78
2023/04/29 01:50:39;;;;;;;;;;;;;;;13.01;96.72;99525.88;1083260;54;19958;-77
2023/04/29 01:51:43;;;;;;;;;;;;;;;13.00;96.24;99530.38;1083739;54;19951;-77
2023/04/29 01:52:47;;;;;;;;;;;;;;;13.02;96.35;99528.38;1083795;54;19950;-79
2023/04/29 01:53:57;;;;;;;;;;;;;;;13.05;96.04;99529.88;1083710;54;19958;-77
2023/04/29 01:55:01;;;;;;;;;;;;;;;13.06;96.20;99529.72;1084447;54;20425;-78
2023/04/29 01:56:04;;;;;;;;;;;;;;;13.08;95.92;99526.84;1084833;54;20377;-78
2023/04/29 01:57:05;;;;;;;;;;;;;;;13.08;95.92;99529.53;1084647;54;19953;-77
2023/04/29 01:58:09;;;;;;;;;;;;;;;13.09;95.58;99526.66;1085352;39;20397;-78
2023/04/29 01:59:10;;;;;;;;;;;;;;;13.11;95.53;99527.31;1084800;54;20925;-78
2023/04/29 02:00:14;;;;;;;;;;;;;;;13.11;95.61;99526.50;1084828;54;20077;-79
2023/04/29 02:01:16;;;;;;;;;;;;;;;13.13;95.38;99529.00;1083913;54;19987;-78
2023/04/29 02:02:22;;;;;;;;;;;;;;;13.13;94.99;99529.81;1084109;54;19950;-78
2023/04/29 02:03:23;;;;;;;;;;;;;;;13.10;95.13;99530.19;1085191;54;19970;-79
2023/04/29 02:04:27;;;;;;;;;;;;;;;13.10;95.47;99532.88;1085043;54;19946;-82
2023/04/29 02:05:31;;;;;;;;;;;;;;;13.10;95.29;99525.66;1085819;54;20002;-78
2023/04/29 02:06:35;;;;;;;;;;;;;;;13.10;95.07;99536.38;1085731;54;19959;-78
2023/04/29 02:07:36;;;;;;;;;;;;;;;13.06;94.85;99528.84;1085955;54;19951;-78
2023/04/29 02:08:40;;;;;;;;;;;;;;;13.05;95.18;99543.28;1085731;54;19947;-80
2023/04/29 02:09:41;;;;;;;;;;;;;;;12.97;95.22;99527.22;1085893;54;19955;-78
2023/04/29 02:10:56;;;;;;;;;;;;;;;13.00;95.18;99534.94;1086271;54;19958;-77
2023/04/29 02:11:57;;;;;;;;;;;;;;;13.01;95.26;99531.25;1085787;54;19974;-82
2023/04/29 02:13:01;;;;;;;;;;;;;;;13.01;95.11;99529.38;1085048;54;19957;-79
2023/04/29 02:14:02;;;;;;;;;;;;;;;13.03;95.16;99540.78;1084579;54;20453;-77
2023/04/29 02:15:07;;;;;;;;;;;;;;;13.02;94.59;99539.09;1084385;54;19973;-78
2023/04/29 02:16:08;;;;;;;;;;;;;;;13.00;95.05;99529.56;1085334;54;20690;-78
2023/04/29 02:17:12;;;;;;;;;;;;;;;12.98;94.67;99536.94;1085757;54;20061;-80
2023/04/29 02:18:13;;;;;;;;;;;;;;;12.97;94.52;99537.94;1086069;54;20035;-78
2023/04/29 02:19:18;;;;;;;;;;;;;;;12.92;94.82;99528.59;1085521;54;19969;-79
2023/04/29 02:20:19;;;;;;;;;;;;;;;12.90;95.33;99533.28;1085705;47;19974;-78
2023/04/29 02:21:22;;;;;;;;;;;;;;;12.90;95.08;99535.09;1086078;46;19966;-77
2023/04/29 02:22:24;;;;;;;;;;;;;;;12.87;95.59;99536.28;1086267;46;19947;-78
2023/04/29 02:23:29;;;;;;;;;;;;;;;12.85;96.08;99532.94;1086309;39;20301;-78
2023/04/29 02:24:30;;;;;;;;;;;;;;;12.84;96.36;99531.28;1084790;54;19957;-77
2023/04/29 02:25:34;;;;;;;;;;;;;;;12.85;97.51;99537.50;1084281;54;19946;-79
2023/04/29 02:26:37;;;;;;;;;;;;;;;12.85;96.71;99532.94;1083714;54;19974;-77
2023/04/29 02:27:41;;;;;;;;;;;;;;;12.86;96.30;99540.00;1084351;54;19981;-78
2023/04/29 02:28:43;;;;;;;;;;;;;;;12.87;96.14;99536.28;1085352;54;19950;-78
2023/04/29 02:29:46;;;;;;;;;;;;;;;12.86;95.55;99544.53;1085888;39;20451;-78
2023/04/29 02:30:48;;;;;;;;;;;;;;;12.83;95.72;99540.34;1085767;46;19973;-78
2023/04/29 02:31:51;;;;;;;;;;;;;;;12.84;95.87;99542.03;1085379;54;19950;-78
2023/04/29 02:32:53;;;;;;;;;;;;;;;12.83;95.59;99545.72;1085485;54;19950;-78
2023/04/29 02:33:57;;;;;;;;;;;;;;;12.83;95.67;99540.34;1085680;54;19951;-78
2023/04/29 02:34:58;;;;;;;;;;;;;;;12.84;95.88;99536.66;1086386;46;19947;-78
2023/04/29 02:36:02;;;;;;;;;;;;;;;12.84;95.75;99533.13;1085648;54;19957;-79
2023/04/29 02:37:03;;;;;;;;;;;;;;;12.84;95.55;99539.34;1085984;54;19950;-78
2023/04/29 02:38:07;;;;;;;;;;;;;;;12.84;95.68;99535.81;1086266;46;19954;-79
2023/04/29 02:39:08;;;;;;;;;;;;;;;12.86;95.49;99533.78;1085745;54;19947;-78
2023/04/29 02:40:12;;;;;;;;;;;;;;;12.87;95.72;99538.16;1084800;54;19958;-78
2023/04/29 02:41:15;;;;;;;;;;;;;;;12.87;95.23;99547.03;1085374;39;20038;-77
2023/04/29 02:42:22;;;;;;;;;;;;;;;12.84;94.94;99544.72;1084769;54;19946;-77
2023/04/29 02:43:23;;;;;;;;;;;;;;;12.84;94.95;99546.53;1084730;54;19962;-79
2023/04/29 02:44:27;;;;;;;;;;;;;;;12.83;94.94;99556.44;1084874;54;20445;-77
2023/04/29 02:45:28;;;;;;;;;;;;;;;12.84;95.25;99546.53;1084591;54;19981;-78
2023/04/29 02:46:33;;;;;;;;;;;;;;;12.84;95.18;99550.06;1084691;54;19957;-77
2023/04/29 02:47:34;;;;;;;;;;;;;;;12.85;95.28;99549.03;1084580;54;19974;-78
2023/04/29 02:48:38;;;;;;;;;;;;;;;12.87;95.25;99538.97;1084141;54;19981;-77
2023/04/29 02:49:39;;;;;;;;;;;;;;;12.90;95.42;99549.38;1084351;54;19946;-77
2023/04/29 02:50:43;;;;;;;;;;;;;;;12.88;95.28;99543.34;1085494;39;20672;-80
2023/04/29 02:51:48;;;;;;;;;;;;;;;12.86;95.87;99541.84;1085378;54;19950;-78
2023/04/29 02:52:52;;;;;;;;;;;;;;;12.87;95.34;99549.72;1086967;39;20378;-78
2023/04/29 02:53:55;;;;;;;;;;;;;;;12.88;95.75;99545.19;1085612;54;20019;-78
2023/04/29 02:54:59;;;;;;;;;;;;;;;12.89;95.68;99545.03;1086145;39;20353;-79
2023/04/29 02:56:00;;;;;;;;;;;;;;;12.90;95.41;99544.00;1087068;54;20566;-78
2023/04/29 02:57:05;;;;;;;;;;;;;;;12.79;96.67;99549.72;1086763;46;19950;-77
2023/04/29 02:58:08;;;;;;;;;;;;;;;12.74;99.33;99550.25;1087803;39;21030;-79
2023/04/29 02:59:14;;;;;;;;;;;;;;;12.72;100.00;99549.56;1087437;54;19953;-78
2023/04/29 03:00:15;;;;;;;;;;;;;;;12.72;100.00;99548.75;1087426;54;19946;-79
2023/04/29 03:01:20;;;;;;;;;;;;;;;12.70;100.00;99548.94;1087586;54;19950;-78
2023/04/29 03:02:21;;;;;;;;;;;;;;;12.72;100.00;99548.75;1087708;46;19970;-76
2023/04/29 03:03:25;;;;;;;;;;;;;;;12.76;100.00;99556.28;1087174;46;19946;-77
2023/04/29 03:04:32;;;;;;;;;;;;;;;12.80;100.00;99557.59;1088710;46;19970;-77
2023/04/29 03:05:37;;;;;;;;;;;;;;;12.85;100.00;99553.59;1087474;54;19931;-77
2023/04/29 03:06:43;;;;;;;;;;;;;;;12.89;100.00;99550.38;1087498;54;19938;-77
2023/04/29 03:07:53;;;;;;;;;;;;;;;12.95;100.00;99548.84;1087415;54;19958;-79
2023/04/29 03:08:55;;;;;;;;;;;;;;;12.98;99.46;99555.72;1087986;46;19969;-78
2023/04/29 03:09:59;;;;;;;;;;;;;;;13.01;99.11;99552.69;1087552;54;19942;-81
2023/04/29 03:11:00;;;;;;;;;;;;;;;13.05;99.06;99554.00;1087815;47;20293;-79
2023/04/29 03:12:04;;;;;;;;;;;;;;;13.07;98.76;99549.31;1087484;54;19965;-77
2023/04/29 03:13:08;;;;;;;;;;;;;;;13.09;98.34;99555.34;1087553;47;19954;-80
2023/04/29 03:14:11;;;;;;;;;;;;;;;13.10;98.35;99551.66;1087521;47;19968;-78
2023/04/29 03:15:13;;;;;;;;;;;;;;;13.10;98.69;99547.13;1087416;54;19943;-77
2023/04/29 03:16:16;;;;;;;;;;;;;;;13.11;98.50;99547.97;1087384;54;19934;-78
2023/04/29 03:17:17;;;;;;;;;;;;;;;13.08;99.34;99551.00;1087118;54;19951;-77
2023/04/29 03:18:22;;;;;;;;;;;;;;;13.00;100.00;99542.97;1087533;54;19942;-78
2023/04/29 03:19:23;;;;;;;;;;;;;;;13.03;100.00;99548.00;1087332;54;19943;-78
2023/04/29 03:20:28;;;;;;;;;;;;;;;13.06;99.95;99553.00;1087498;47;20373;-78
2023/04/29 03:21:29;;;;;;;;;;;;;;;13.08;99.19;99549.13;1087405;54;19947;-78
2023/04/29 03:22:33;;;;;;;;;;;;;;;13.09;99.05;99552.66;1087468;47;19998;-77
2023/04/29 03:23:34;;;;;;;;;;;;;;;13.06;99.49;99548.50;1087290;54;19950;-78
2023/04/29 03:24:38;;;;;;;;;;;;;;;13.04;99.72;99549.66;1087231;54;19950;-77
2023/04/29 03:25:40;;;;;;;;;;;;;;;13.01;100.00;99550.03;1088510;46;19938;-78
2023/04/29 03:26:44;;;;;;;;;;;;;;;12.98;100.00;99548.53;1089175;39;20190;-77
2023/04/29 03:27:46;;;;;;;;;;;;;;;12.98;100.00;99547.66;1087575;47;19949;-77
2023/04/29 03:28:52;;;;;;;;;;;;;;;12.99;100.00;99546.66;1087232;54;19950;-77
2023/04/29 03:29:53;;;;;;;;;;;;;;;13.00;100.00;99540.28;1087299;54;19950;-78
2023/04/29 03:30:59;;;;;;;;;;;;;;;12.97;100.00;99548.69;1087327;54;19942;-78
2023/04/29 03:32:01;;;;;;;;;;;;;;;12.91;100.00;99545.69;1087211;54;19939;-77
2023/04/29 03:33:05;;;;;;;;;;;;;;;12.92;100.00;99550.06;1087404;54;19942;-77
2023/04/29 03:34:06;;;;;;;;;;;;;;;12.94;100.00;99552.53;1086695;54;19942;-77
2023/04/29 03:35:10;;;;;;;;;;;;;;;12.94;100.00;99548.00;1086633;54;19960;-77
2023/04/29 03:36:14;;;;;;;;;;;;;;;12.92;100.00;99550.06;1086567;54;20049;-76
2023/04/29 03:37:15;;;;;;;;;;;;;;;12.91;100.00;99548.38;1086668;54;19943;-77
2023/04/29 03:38:19;;;;;;;;;;;;;;;12.89;100.00;99550.38;1086059;54;19958;-79
2023/04/29 03:39:20;;;;;;;;;;;;;;;12.91;100.00;99547.50;1085237;54;20555;-78
2023/04/29 03:40:24;;;;;;;;;;;;;;;12.92;100.00;99555.41;1086528;54;19951;-79
2023/04/29 03:41:25;;;;;;;;;;;;;;;12.91;100.00;99548.38;1086723;54;19943;-77
2023/04/29 03:42:28;;;;;;;;;;;;;;;12.89;100.00;99542.34;1085150;54;19954;-77
2023/04/29 03:43:31;;;;;;;;;;;;;;;12.93;100.00;99541.00;1084718;54;19951;-78
2023/04/29 03:44:37;;;;;;;;;;;;;;;12.99;100.00;99543.97;1084983;54;19939;-77
2023/04/29 03:45:38;;;;;;;;;;;;;;;12.96;100.00;99539.81;1084646;54;19950;-78
2023/04/29 03:46:42;;;;;;;;;;;;;;;12.94;100.00;99542.63;1084967;54;19958;-78
2023/04/29 03:47:43;;;;;;;;;;;;;;;12.95;100.00;99538.94;1084967;47;19947;-77
2023/04/29 03:48:47;;;;;;;;;;;;;;;12.92;100.00;99543.81;1084967;47;19947;-77
2023/04/29 03:49:48;;;;;;;;;;;;;;;12.92;100.00;99551.88;1084444;54;19947;-78
2023/04/29 03:50:52;;;;;;;;;;;;;;;12.96;100.00;99547.84;1084320;54;20434;-80
2023/04/29 03:51:53;;;;;;;;;;;;;;;13.02;100.00;99549.00;1084372;54;20001;-78
2023/04/29 03:52:57;;;;;;;;;;;;;;;12.98;100.00;99543.16;1084684;54;19989;-78
2023/04/29 03:53:58;;;;;;;;;;;;;;;12.94;100.00;99548.00;1084969;47;19951;-79
2023/04/29 03:55:02;;;;;;;;;;;;;;;13.01;100.00;99552.69;1085283;54;19950;-79
2023/04/29 03:56:03;;;;;;;;;;;;;;;12.99;100.00;99557.41;1084787;54;19951;-82
2023/04/29 03:57:07;;;;;;;;;;;;;;;12.97;100.00;99562.09;1085671;54;19957;-78
2023/04/29 03:58:08;;;;;;;;;;;;;;;12.98;100.00;99558.41;1084909;54;19970;-79
2023/04/29 03:59:12;;;;;;;;;;;;;;;12.99;100.00;99560.06;1085165;54;19977;-79
2023/04/29 04:00:16;;;;;;;;;;;;;;;12.94;100.00;99566.78;1085304;54;19950;-79
2023/04/29 04:01:21;;;;;;;;;;;;;;;12.96;100.00;99566.63;1085053;54;19950;-79
2023/04/29 04:02:25;;;;;;;;;;;;;;;13.01;100.00;99561.56;1085463;54;19946;-79
2023/04/29 04:03:29;;;;;;;;;;;;;;;13.06;100.00;99561.06;1086070;47;19997;-77
2023/04/29 04:04:30;;;;;;;;;;;;;;;13.07;100.00;99560.06;1086943;47;20023;-79
2023/04/29 04:05:34;;;;;;;;;;;;;;;13.09;100.00;99563.41;1085368;54;19947;-79
2023/04/29 04:06:35;;;;;;;;;;;;;;;13.12;100.00;99560.38;1085648;54;20011;-78
2023/04/29 04:07:39;;;;;;;;;;;;;;;13.15;100.00;99557.34;1085442;54;19950;-79
2023/04/29 04:08:40;;;;;;;;;;;;;;;13.18;100.00;99567.72;1085560;54;19970;-81
2023/04/29 04:09:46;;;;;;;;;;;;;;;13.20;100.00;99563.03;1085837;54;19954;-79
2023/04/29 04:10:47;;;;;;;;;;;;;;;13.22;100.00;99571.75;1085380;54;19950;-79
2023/04/29 04:11:51;;;;;;;;;;;;;;;13.23;100.00;99569.91;1085880;54;19947;-77
2023/04/29 04:12:52;;;;;;;;;;;;;;;13.24;100.00;99567.03;1085653;54;19950;-77
2023/04/29 04:13:55;;;;;;;;;;;;;;;13.23;100.00;99577.94;1085220;54;19954;-78
2023/04/29 04:14:58;;;;;;;;;;;;;;;13.21;100.00;99570.06;1085141;54;20026;-78
2023/04/29 04:16:04;;;;;;;;;;;;;;;13.20;100.00;99567.56;1085700;54;19954;-78
2023/04/29 04:17:05;;;;;;;;;;;;;;;13.18;100.00;99565.06;1085480;54;19950;-78
2023/04/29 04:18:09;;;;;;;;;;;;;;;13.19;100.00;99574.78;1085530;54;19943;-81
2023/04/29 04:19:10;;;;;;;;;;;;;;;13.21;100.00;99575.44;1085340;54;19970;-80
2023/04/29 04:20:14;;;;;;;;;;;;;;;13.23;100.00;99584.13;1084903;54;19946;-78
2023/04/29 04:21:15;;;;;;;;;;;;;;;13.27;100.00;99573.91;1084606;54;19977;-78
2023/04/29 04:22:19;;;;;;;;;;;;;;;13.29;100.00;99579.09;1085352;54;19950;-78
2023/04/29 04:23:21;;;;;;;;;;;;;;;13.25;100.00;99570.56;1085707;54;19938;-78
2023/04/29 04:24:25;;;;;;;;;;;;;;;13.22;100.00;99566.38;1085896;54;19942;-77
2023/04/29 04:25:27;;;;;;;;;;;;;;;13.15;99.71;99576.13;1086213;39;20448;-79
2023/04/29 04:26:31;;;;;;;;;;;;;;;13.13;99.99;99578.13;1085651;54;19981;-78
2023/04/29 04:27:32;;;;;;;;;;;;;;;13.13;100.00;99578.13;1084741;54;20992;-80
2023/04/29 04:28:36;;;;;;;;;;;;;;;13.09;99.96;99588.38;1084811;54;19973;-78
2023/04/29 04:29:37;;;;;;;;;;;;;;;13.05;100.00;99579.00;1085374;54;19958;-78
2023/04/29 04:30:42;;;;;;;;;;;;;;;13.06;100.00;99587.88;1086107;54;19947;-78
2023/04/29 04:31:46;;;;;;;;;;;;;;;13.09;100.00;99588.38;1086206;54;19950;-77
2023/04/29 04:32:50;;;;;;;;;;;;;;;13.07;100.00;99589.56;1086992;54;20015;-79
2023/04/29 04:33:51;;;;;;;;;;;;;;;13.11;100.00;99581.00;1085595;54;19943;-79
2023/04/29 04:34:54;;;;;;;;;;;;;;;13.17;100.00;99586.69;1084862;54;19950;-79
2023/04/29 04:35:56;;;;;;;;;;;;;;;13.19;99.55;99596.25;1085336;54;19946;-79
2023/04/29 04:37:00;;;;;;;;;;;;;;;13.18;99.26;99596.41;1085338;54;19969;-79
2023/04/29 04:38:04;;;;;;;;;;;;;;;13.21;99.07;99594.22;1085887;54;19954;-79
2023/04/29 04:39:08;;;;;;;;;;;;;;;13.19;98.30;99598.94;1085835;54;19950;-78
2023/04/29 04:40:11;;;;;;;;;;;;;;;13.18;98.53;99597.25;1085005;54;19950;-79
2023/04/29 04:41:14;;;;;;;;;;;;;;;13.16;98.48;99595.75;1085640;54;20043;-79
2023/04/29 04:42:15;;;;;;;;;;;;;;;13.13;98.53;99602.28;1084732;54;19973;-79
2023/04/29 04:43:19;;;;;;;;;;;;;;;13.10;98.66;99600.78;1084664;54;19950;-79
2023/04/29 04:44:20;;;;;;;;;;;;;;;13.10;98.79;99608.03;1085137;54;19958;-80
2023/04/29 04:45:25;;;;;;;;;;;;;;;13.08;98.73;99607.34;1086032;54;19950;-78
2023/04/29 04:46:26;;;;;;;;;;;;;;;13.06;98.33;99604.84;1086324;54;19942;-79
2023/04/29 04:47:36;;;;;;;;;;;;;;;13.06;98.49;99609.34;1086173;54;20014;-79
2023/04/29 04:48:37;;;;;;;;;;;;;;;13.10;98.74;99611.53;1085994;54;20546;-79
2023/04/29 04:49:41;;;;;;;;;;;;;;;13.14;98.98;99606.66;1085224;54;19946;-78
2023/04/29 04:50:42;;;;;;;;;;;;;;;13.14;98.46;99609.31;1085329;54;19950;-79
2023/04/29 04:51:46;;;;;;;;;;;;;;;13.17;98.32;99614.38;1085058;54;19950;-78
2023/04/29 04:52:47;;;;;;;;;;;;;;;13.19;98.04;99609.66;1085209;54;19955;-79
2023/04/29 04:53:51;;;;;;;;;;;;;;;13.24;98.15;99601.91;1084930;54;19973;-79
2023/04/29 04:54:52;;;;;;;;;;;;;;;13.29;97.80;99604.09;1085217;54;19950;-79
2023/04/29 04:55:56;;;;;;;;;;;;;;;13.32;97.17;99597.56;1085184;54;19957;-79
2023/04/29 04:56:57;;;;;;;;;;;;;;;13.31;96.30;99609.31;1085014;54;19950;-79
2023/04/29 04:58:02;;;;;;;;;;;;;;;13.32;96.27;99608.28;1084962;54;19947;-79
2023/04/29 04:59:03;;;;;;;;;;;;;;;13.32;95.43;99608.28;1085386;39;20416;-78
2023/04/29 05:00:08;;;;;;;;;;;;;;;13.34;96.05;99614.31;1084819;54;19951;-78
2023/04/29 05:01:11;;;;;;;;;;;;;;;13.32;95.22;99605.59;1085141;54;20458;-78
2023/04/29 05:02:13;;;;;;;;;;;;;;;13.32;95.34;99613.66;1085342;54;19951;-78
2023/04/29 05:03:19;;;;;;;;;;;;;;;13.33;95.43;99604.56;1084969;54;20548;-78
2023/04/29 05:04:21;;;;;;;;;;;;;;;13.32;95.35;99609.13;1084665;46;19953;-78
2023/04/29 05:05:24;;;;;;;;;;;;;;;13.29;94.53;99614.00;1084694;54;19946;-79
2023/04/29 05:06:27;;;;;;;;;;;;;;;13.29;94.90;99612.13;1084940;54;19973;-78
2023/04/29 05:07:34;;;;;;;;;;;;;;;13.30;95.04;99618.34;1084469;54;19957;-79
2023/04/29 05:08:36;;;;;;;;;;;;;;;13.27;94.21;99622.22;1084954;54;19994;-78
2023/04/29 05:09:42;;;;;;;;;;;;;;;13.30;94.92;99613.81;1085044;54;20516;-79
2023/04/29 05:10:45;;;;;;;;;;;;;;;13.27;94.61;99623.06;1084530;54;19950;-78
2023/04/29 05:11:51;;;;;;;;;;;;;;;13.27;95.03;99627.59;1084987;54;19968;-78
2023/04/29 05:12:53;;;;;;;;;;;;;;;13.29;94.76;99625.56;1084850;54;19998;-79
2023/04/29 05:13:59;;;;;;;;;;;;;;;13.33;95.14;99626.03;1084753;54;19962;-78
2023/04/29 05:15:01;;;;;;;;;;;;;;;13.33;94.71;99632.28;1084635;54;19969;-78
2023/04/29 05:16:05;;;;;;;;;;;;;;;13.32;94.32;99629.78;1084890;54;19950;-78
2023/04/29 05:17:08;;;;;;;;;;;;;;;13.35;94.70;99634.78;1085640;54;19981;-78
2023/04/29 05:18:13;;;;;;;;;;;;;;;13.39;94.60;99625.41;1086639;46;19977;-80
2023/04/29 05:19:16;;;;;;;;;;;;;;;13.38;93.73;99634.44;1086008;54;19970;-78
2023/04/29 05:20:20;;;;;;;;;;;;;;;13.32;94.26;99640.50;1086132;54;19942;-80
2023/04/29 05:21:21;;;;;;;;;;;;;;;13.30;94.85;99631.78;1086242;46;19946;-78
2023/04/29 05:22:25;;;;;;;;;;;;;;;13.28;95.36;99640.00;1085473;54;19947;-78
2023/04/29 05:23:27;;;;;;;;;;;;;;;13.26;95.45;99636.66;1085714;54;19950;-78
2023/04/29 05:24:31;;;;;;;;;;;;;;;13.25;95.23;99637.66;1087011;39;20459;-78
2023/04/29 05:25:35;;;;;;;;;;;;;;;13.35;95.65;99640.13;1085717;54;19962;-78
2023/04/29 05:26:37;;;;;;;;;;;;;;;13.31;94.64;99644.19;1085689;54;19951;-78
2023/04/29 05:27:40;;;;;;;;;;;;;;;13.30;94.54;99653.25;1085380;54;20570;-77
2023/04/29 05:28:42;;;;;;;;;;;;;;;13.29;93.91;99651.59;1085514;54;19951;-78
2023/04/29 05:29:46;;;;;;;;;;;;;;;13.36;94.73;99656.09;1085567;54;19946;-78